sensor_id;sensor_type;location;lat;lon;timestamp;pressure;altitude;pressure_sealevel;temperature;humidity
53011;BME280;42803;55.762;38.084;2023-02-01T00:01:41;98288.47;;;-1.37;100.00
53011;BME280;42803;55.762;38.084;2023-02-01T00:04:10;98285.91;;;-1.37;100.00
53011;BME280;42803;55.762;38.084;2023-02-01T00:06:39;98294.31;;;-1.38;100.00
53011;BME280;42803;55.762;38.084;2023-02-01T00:09:08;98293.41;;;-1.38;100.00
53011;BME280;42803;55.762;38.084;2023-02-01T00:11:37;98288.31;;;-1.38;100.00
53011;BME280;42803;55.762;38.084;2023-02-01T00:14:06;98291.03;;;-1.37;100.00
53011;BME280;42803;55.762;38.084;2023-02-01T00:16:38;98291.03;;;-1.37;100.00
53011;BME280;42803;55.762;38.084;2023-02-01T00:19:10;98286.22;;;-1.34;100.00
53011;BME280;42803;55.762;38.084;2023-02-01T00:21:40;98290.59;;;-1.33;100.00
53011;BME280;42803;55.762;38.084;2023-02-01T00:24:10;98286.22;;;-1.34;100.00
53011;BME280;42803;55.762;38.084;2023-02-01T00:26:41;98294.81;;;-1.33;100.00
53011;BME280;42803;55.762;38.084;2023-02-01T00:29:12;98286.22;;;-1.34;100.00
53011;BME280;42803;55.762;38.084;2023-02-01T00:31:45;98297.84;;;-1.29;100.00
53011;BME280;42803;55.762;38.084;2023-02-01T00:34:16;98290.16;;;-1.29;100.00
53011;BME280;42803;55.762;38.084;2023-02-01T00:36:45;98293.47;;;-1.30;100.00
53011;BME280;42803;55.762;38.084;2023-02-01T00:39:16;98295.28;;;-1.29;100.00
53011;BME280;42803;55.762;38.084;2023-02-01T00:41:45;98288.38;;;-1.30;100.00
53011;BME280;42803;55.762;38.084;2023-02-01T00:44:14;98298.75;;;-1.28;100.00
53011;BME280;42803;55.762;38.084;2023-02-01T00:46:45;98296.34;;;-1.27;100.00
53011;BME280;42803;55.762;38.084;2023-02-01T00:49:15;98301.31;;;-1.28;100.00
53011;BME280;42803;55.762;38.084;2023-02-01T00:51:44;98291.66;;;-1.31;100.00
53011;BME280;42803;55.762;38.084;2023-02-01T00:54:13;98293.47;;;-1.30;100.00
53011;BME280;42803;55.762;38.084;2023-02-01T00:56:42;98296.75;;;-1.31;100.00
53011;BME280;42803;55.762;38.084;2023-02-01T00:59:11;98293.63;;;-1.28;100.00
53011;BME280;42803;55.762;38.084;2023-02-01T01:01:40;98293.78;;;-1.27;100.00
53011;BME280;42803;55.762;38.084;2023-02-01T01:04:11;98294.38;;;-1.29;100.00
53011;BME280;42803;55.762;38.084;2023-02-01T01:06:40;98295.28;;;-1.29;100.00
53011;BME280;42803;55.762;38.084;2023-02-01T01:09:09;98295.88;;;-1.31;100.00
53011;BME280;42803;55.762;38.084;2023-02-01T01:11:38;98293.47;;;-1.30;100.00
53011;BME280;42803;55.762;38.084;2023-02-01T01:14:08;98295.88;;;-1.31;100.00
53011;BME280;42803;55.762;38.084;2023-02-01T01:16:37;98289.84;;;-1.32;100.00
53011;BME280;42803;55.762;38.084;2023-02-01T01:19:07;98294.97;;;-1.32;100.00
53011;BME280;42803;55.762;38.084;2023-02-01T01:21:38;98298.28;;;-1.33;100.00
53011;BME280;42803;55.762;38.084;2023-02-01T01:24:07;98303.72;;;-1.30;100.00
53011;BME280;42803;55.762;38.084;2023-02-01T01:26:36;98303.72;;;-1.30;100.00
53011;BME280;42803;55.762;38.084;2023-02-01T01:29:05;98304.63;;;-1.29;100.00
53011;BME280;42803;55.762;38.084;2023-02-01T01:31:34;98302.97;;;-1.29;100.00
53011;BME280;42803;55.762;38.084;2023-02-01T01:34:03;98305.66;;;-1.27;100.00
53011;BME280;42803;55.762;38.084;2023-02-01T01:36:32;98300.41;;;-1.29;100.00
53011;BME280;42803;55.762;38.084;2023-02-01T01:39:03;98304.63;;;-1.29;100.00
53011;BME280;42803;55.762;38.084;2023-02-01T01:41:32;98308.84;;;-1.30;100.00
53011;BME280;42803;55.762;38.084;2023-02-01T01:44:56;98302.97;;;-1.29;100.00
53011;BME280;42803;55.762;38.084;2023-02-01T01:47:36;98299.31;;;-1.31;100.00
53011;BME280;42803;55.762;38.084;2023-02-01T01:50:08;98307.91;;;-1.30;100.00
53011;BME280;42803;55.762;38.084;2023-02-01T01:52:40;98301.56;;;-1.34;100.00
53011;BME280;42803;55.762;38.084;2023-02-01T01:55:11;98307.63;;;-1.33;100.00
53011;BME280;42803;55.762;38.084;2023-02-01T01:57:44;98301.28;;;-1.37;100.00
53011;BME280;42803;55.762;38.084;2023-02-01T02:00:17;98307.44;;;-1.35;100.00
53011;BME280;42803;55.762;38.084;2023-02-01T02:02:54;98303.97;;;-1.35;100.00
53011;BME280;42803;55.762;38.084;2023-02-01T02:05:26;98307.28;;;-1.36;100.00
53011;BME280;42803;55.762;38.084;2023-02-01T02:07:59;98299.63;;;-1.36;100.00
53011;BME280;42803;55.762;38.084;2023-02-01T02:10:30;98304.56;;;-1.38;100.00
53011;BME280;42803;55.762;38.084;2023-02-01T02:13:14;98305.31;;;-1.39;100.00
53011;BME280;42803;55.762;38.084;2023-02-01T02:15:51;98308.06;;;-1.37;100.00
53011;BME280;42803;55.762;38.084;2023-02-01T02:18:27;98314.78;;;-1.38;100.00
53011;BME280;42803;55.762;38.084;2023-02-01T02:21:11;98315.13;;;-1.35;100.00
53011;BME280;42803;55.762;38.084;2023-02-01T02:24:07;98314.38;;;-1.34;100.00
53011;BME280;42803;55.762;38.084;2023-02-01T02:26:53;98320.41;;;-1.33;100.00
53011;BME280;42803;55.762;38.084;2023-02-01T02:29:52;98325.69;;;-1.32;100.00
53011;BME280;42803;55.762;38.084;2023-02-01T02:32:55;98327.16;;;-1.34;100.00
53011;BME280;42803;55.762;38.084;2023-02-01T02:35:36;98325.22;;;-1.36;100.00
53011;BME280;42803;55.762;38.084;2023-02-01T02:38:15;98326.88;;;-1.37;100.00
53011;BME280;42803;55.762;38.084;2023-02-01T02:40:51;98326.53;;;-1.40;100.00
53011;BME280;42803;55.762;38.084;2023-02-01T02:43:31;98324.75;;;-1.41;100.00
53011;BME280;42803;55.762;38.084;2023-02-01T02:46:25;98328.78;;;-1.43;100.00
53011;BME280;42803;55.762;38.084;2023-02-01T02:49:19;98326.50;;;-1.49;100.00
53011;BME280;42803;55.762;38.084;2023-02-01T02:51:55;98328.00;;;-1.51;100.00
53011;BME280;42803;55.762;38.084;2023-02-01T02:54:46;98328.28;;;-1.56;100.00
53011;BME280;42803;55.762;38.084;2023-02-01T02:57:23;98328.38;;;-1.63;100.00
53011;BME280;42803;55.762;38.084;2023-02-01T03:00:14;98328.03;;;-1.66;100.00
53011;BME280;42803;55.762;38.084;2023-02-01T03:03:02;98327.28;;;-1.65;100.00
53011;BME280;42803;55.762;38.084;2023-02-01T03:05:49;98330.94;;;-1.63;100.00
53011;BME280;42803;55.762;38.084;2023-02-01T03:08:22;98331.41;;;-1.59;100.00
53011;BME280;42803;55.762;38.084;2023-02-01T03:10:55;98327.94;;;-1.59;100.00
53011;BME280;42803;55.762;38.084;2023-02-01T03:13:31;98330.31;;;-1.61;100.00
53011;BME280;42803;55.762;38.084;2023-02-01T03:16:05;98330.19;;;-1.62;100.00
53011;BME280;42803;55.762;38.084;2023-02-01T03:18:42;98338.09;;;-1.68;100.00
53011;BME280;42803;55.762;38.084;2023-02-01T03:21:17;98326.91;;;-1.77;100.00
53011;BME280;42803;55.762;38.084;2023-02-01T03:23:51;98328.81;;;-1.83;100.00
53011;BME280;42803;55.762;38.084;2023-02-01T03:26:24;98334.97;;;-1.90;100.00
53011;BME280;42803;55.762;38.084;2023-02-01T03:29:03;98335.22;;;-1.96;100.00
53011;BME280;42803;55.762;38.084;2023-02-01T03:31:34;98335.81;;;-1.98;100.00
53011;BME280;42803;55.762;38.084;2023-02-01T03:34:04;98334.16;;;-1.98;100.00
53011;BME280;42803;55.762;38.084;2023-02-01T03:36:40;98334.72;;;-2.00;100.00
53011;BME280;42803;55.762;38.084;2023-02-01T03:39:16;98337.63;;;-1.97;100.00
53011;BME280;42803;55.762;38.084;2023-02-01T03:41:50;98335.06;;;-1.97;100.00
53011;BME280;42803;55.762;38.084;2023-02-01T03:44:23;98332.84;;;-1.94;100.00
53011;BME280;42803;55.762;38.084;2023-02-01T03:46:57;98339.47;;;-1.87;100.00
53011;BME280;42803;55.762;38.084;2023-02-01T03:49:29;98342.53;;;-1.83;100.00
53011;BME280;42803;55.762;38.084;2023-02-01T03:52:00;98334.13;;;-1.82;100.00
53011;BME280;42803;55.762;38.084;2023-02-01T03:54:33;98344.66;;;-1.79;100.00
53011;BME280;42803;55.762;38.084;2023-02-01T03:57:06;98341.94;;;-1.80;100.00
53011;BME280;42803;55.762;38.084;2023-02-01T03:59:39;98344.66;;;-1.79;100.00
53011;BME280;42803;55.762;38.084;2023-02-01T04:02:08;98345.72;;;-1.77;100.00
53011;BME280;42803;55.762;38.084;2023-02-01T04:04:38;98349.84;;;-1.70;100.00
53011;BME280;42803;55.762;38.084;2023-02-01T04:07:07;98356.19;;;-1.66;100.00
53011;BME280;42803;55.762;38.084;2023-02-01T04:09:38;98352.31;;;-1.63;100.00
53011;BME280;42803;55.762;38.084;2023-02-01T04:12:07;98359.38;;;-1.60;100.00
53011;BME280;42803;55.762;38.084;2023-02-01T04:14:36;98361.34;;;-1.58;100.00
53011;BME280;42803;55.762;38.084;2023-02-01T04:17:05;98369.22;;;-1.56;100.00
53011;BME280;42803;55.762;38.084;2023-02-01T04:19:34;98375.22;;;-1.56;100.00
53011;BME280;42803;55.762;38.084;2023-02-01T04:22:03;98376.47;;;-1.52;100.00
53011;BME280;42803;55.762;38.084;2023-02-01T04:24:32;98380.25;;;-1.49;100.00
53011;BME280;42803;55.762;38.084;2023-02-01T04:27:03;98385.50;;;-1.47;100.00
53011;BME280;42803;55.762;38.084;2023-02-01T04:29:32;98379.81;;;-1.44;100.00
53011;BME280;42803;55.762;38.084;2023-02-01T04:32:01;98390.97;;;-1.44;100.00
53011;BME280;42803;55.762;38.084;2023-02-01T04:34:30;98387.63;;;-1.43;100.00
53011;BME280;42803;55.762;38.084;2023-02-01T04:36:59;98392.75;;;-1.43;100.00
53011;BME280;42803;55.762;38.084;2023-02-01T04:39:28;98396.41;;;-1.41;100.00
53011;BME280;42803;55.762;38.084;2023-02-01T04:41:57;98397.31;;;-1.40;100.00
53011;BME280;42803;55.762;38.084;2023-02-01T04:44:28;98396.69;;;-1.38;100.00
53011;BME280;42803;55.762;38.084;2023-02-01T04:46:57;98397.72;;;-1.20;100.00
53011;BME280;42803;55.762;38.084;2023-02-01T04:49:26;98403.72;;;-1.19;100.00
53011;BME280;42803;55.762;38.084;2023-02-01T04:51:55;98405.88;;;-1.15;100.00
53011;BME280;42803;55.762;38.084;2023-02-01T04:54:24;98405.25;;;-1.21;100.00
53011;BME280;42803;55.762;38.084;2023-02-01T04:56:53;98413.88;;;-1.12;100.00
53011;BME280;42803;55.762;38.084;2023-02-01T04:59:22;98411.97;;;-1.06;100.00
53011;BME280;42803;55.762;38.084;2023-02-01T05:01:52;98412.06;;;-1.13;100.00
53011;BME280;42803;55.762;38.084;2023-02-01T05:04:21;98414.31;;;-1.16;100.00
53011;BME280;42803;55.762;38.084;2023-02-01T05:06:51;98416.09;;;-1.15;100.00
53011;BME280;42803;55.762;38.084;2023-02-01T05:09:20;98417.38;;;-1.03;100.00
53011;BME280;42803;55.762;38.084;2023-02-01T05:11:49;98419.00;;;-1.12;100.00
53011;BME280;42803;55.762;38.084;2023-02-01T05:14:34;98423.78;;;-1.15;100.00
53011;BME280;42803;55.762;38.084;2023-02-01T05:17:05;98418.53;;;-1.17;100.00
53011;BME280;42803;55.762;38.084;2023-02-01T05:19:34;98427.88;;;-1.17;100.00
53011;BME280;42803;55.762;38.084;2023-02-01T05:22:03;98429.66;;;-1.16;100.00
53011;BME280;42803;55.762;38.084;2023-02-01T05:24:32;98428.28;;;-1.21;100.00
53011;BME280;42803;55.762;38.084;2023-02-01T05:27:01;98428.34;;;-1.13;100.00
53011;BME280;42803;55.762;38.084;2023-02-01T05:29:30;98420.66;;;-1.13;100.00
53011;BME280;42803;55.762;38.084;2023-02-01T05:31:59;98425.78;;;-1.13;100.00
53011;BME280;42803;55.762;38.084;2023-02-01T05:34:48;98430.56;;;-1.16;100.00
53011;BME280;42803;55.762;38.084;2023-02-01T05:37:17;98430.41;;;-1.17;100.00
53011;BME280;42803;55.762;38.084;2023-02-01T05:39:46;98430.91;;;-1.13;100.00
53011;BME280;42803;55.762;38.084;2023-02-01T05:42:16;98428.19;;;-1.14;100.00
53011;BME280;42803;55.762;38.084;2023-02-01T05:44:45;98433.31;;;-1.14;100.00
53011;BME280;42803;55.762;38.084;2023-02-01T05:47:14;98436.59;;;-1.15;100.00
53011;BME280;42803;55.762;38.084;2023-02-01T05:49:43;98435.69;;;-1.16;100.00
53011;BME280;42803;55.762;38.084;2023-02-01T05:52:13;98439.34;;;-1.14;100.00
53011;BME280;42803;55.762;38.084;2023-02-01T05:54:46;98439.16;;;-1.15;100.00
53011;BME280;42803;55.762;38.084;2023-02-01T05:57:15;98443.22;;;-1.17;100.00
53011;BME280;42803;55.762;38.084;2023-02-01T05:59:44;98437.78;;;-1.20;100.00
53011;BME280;42803;55.762;38.084;2023-02-01T06:02:15;98443.22;;;-1.17;100.00
53011;BME280;42803;55.762;38.084;2023-02-01T06:04:44;98440.66;;;-1.17;100.00
53011;BME280;42803;55.762;38.084;2023-02-01T06:07:14;98440.66;;;-1.17;100.00
53011;BME280;42803;55.762;38.084;2023-02-01T06:09:43;98439.91;;;-1.16;100.00
53011;BME280;42803;55.762;38.084;2023-02-01T06:12:13;98453.78;;;-1.14;100.00
53011;BME280;42803;55.762;38.084;2023-02-01T06:14:42;98442.03;;;-1.12;100.00
53011;BME280;42803;55.762;38.084;2023-02-01T06:17:11;98448.97;;;-1.11;100.00
53011;BME280;42803;55.762;38.084;2023-02-01T06:19:40;98459.81;;;-1.14;100.00
53011;BME280;42803;55.762;38.084;2023-02-01T06:22:09;98452.28;;;-1.12;100.00
53011;BME280;42803;55.762;38.084;2023-02-01T06:24:39;98458.06;;;-1.06;100.00
53011;BME280;42803;55.762;38.084;2023-02-01T06:27:09;98460.91;;;-1.03;100.00
53011;BME280;42803;55.762;38.084;2023-02-01T06:29:39;98453.22;;;-1.03;100.00
53011;BME280;42803;55.762;38.084;2023-02-01T06:32:08;98467.09;;;-1.01;100.00
53011;BME280;42803;55.762;38.084;2023-02-01T06:34:37;98463.78;;;-1.00;100.00
53011;BME280;42803;55.762;38.084;2023-02-01T06:37:07;98473.13;;;-1.01;100.00
53011;BME280;42803;55.762;38.084;2023-02-01T06:39:36;98474.03;;;-1.00;100.00
53011;BME280;42803;55.762;38.084;2023-02-01T06:42:06;98475.88;;;-0.99;100.00
53011;BME280;42803;55.762;38.084;2023-02-01T06:44:35;98479.34;;;-0.99;100.00
53011;BME280;42803;55.762;38.084;2023-02-01T06:47:04;98476.03;;;-0.98;100.00
53011;BME280;42803;55.762;38.084;2023-02-01T06:49:35;98473.19;;;-0.92;100.00
53011;BME280;42803;55.762;38.084;2023-02-01T06:52:04;98480.44;;;-0.88;100.00
53011;BME280;42803;55.762;38.084;2023-02-01T06:54:34;98476.72;;;-0.83;100.00
53011;BME280;42803;55.762;38.084;2023-02-01T06:57:06;98490.44;;;-0.82;100.00
53011;BME280;42803;55.762;38.084;2023-02-01T06:59:35;98478.66;;;-0.80;100.00
53011;BME280;42803;55.762;38.084;2023-02-01T07:02:04;98486.09;;;-0.75;100.00
53011;BME280;42803;55.762;38.084;2023-02-01T07:04:34;98491.00;;;-0.60;100.00
53011;BME280;42803;55.762;38.084;2023-02-01T07:07:04;98477.88;;;-0.63;100.00
53011;BME280;42803;55.762;38.084;2023-02-01T07:09:33;98487.34;;;-0.62;100.00
53011;BME280;42803;55.762;38.084;2023-02-01T07:12:05;98480.09;;;-0.66;100.00
53011;BME280;42803;55.762;38.084;2023-02-01T07:14:35;98483.00;;;-0.63;100.00
53011;BME280;42803;55.762;38.084;2023-02-01T07:17:04;98484.78;;;-0.62;100.00
53011;BME280;42803;55.762;38.084;2023-02-01T07:19:33;98486.59;;;-0.61;100.00
53011;BME280;42803;55.762;38.084;2023-02-01T07:22:04;98487.22;;;-0.64;100.00
53011;BME280;42803;55.762;38.084;2023-02-01T07:24:33;98479.66;;;-0.62;100.00
53011;BME280;42803;55.762;38.084;2023-02-01T07:27:03;98488.13;;;-0.63;100.00
53011;BME280;42803;55.762;38.084;2023-02-01T07:29:33;98484.66;;;-0.64;100.00
53011;BME280;42803;55.762;38.084;2023-02-01T07:32:02;98496.84;;;-0.61;100.00
53011;BME280;42803;55.762;38.084;2023-02-01T07:34:31;98486.03;;;-0.59;100.00
53011;BME280;42803;55.762;38.084;2023-02-01T07:37:01;98493.44;;;-0.53;100.00
53011;BME280;42803;55.762;38.084;2023-02-01T07:39:30;98492.03;;;-0.58;100.00
53011;BME280;42803;55.762;38.084;2023-02-01T07:41:59;98495.03;;;-0.62;100.00
53011;BME280;42803;55.762;38.084;2023-02-01T07:44:29;98503.69;;;-0.53;100.00
53011;BME280;42803;55.762;38.084;2023-02-01T07:47:00;98498.44;;;-0.46;100.00
53011;BME280;42803;55.762;38.084;2023-02-01T07:49:29;98496.66;;;-0.38;100.00
53011;BME280;42803;55.762;38.084;2023-02-01T07:51:58;98505.09;;;-0.39;100.00
53011;BME280;42803;55.762;38.084;2023-02-01T07:54:27;98495.31;;;-0.35;100.00
53011;BME280;42803;55.762;38.084;2023-02-01T07:56:56;98500.44;;;-0.35;100.00
53011;BME280;42803;55.762;38.084;2023-02-01T07:59:26;98501.31;;;-0.43;100.00
53011;BME280;42803;55.762;38.084;2023-02-01T08:01:55;98500.84;;;-0.47;100.00
53011;BME280;42803;55.762;38.084;2023-02-01T08:04:24;98493.63;;;-0.43;100.00
53011;BME280;42803;55.762;38.084;2023-02-01T08:06:53;98500.75;;;-0.32;100.00
53011;BME280;42803;55.762;38.084;2023-02-01T08:09:22;98490.25;;;-0.26;100.00
53011;BME280;42803;55.762;38.084;2023-02-01T08:11:51;98490.13;;;-0.10;100.00
53011;BME280;42803;55.762;38.084;2023-02-01T08:14:20;98493.75;;;-0.08;100.00
53011;BME280;42803;55.762;38.084;2023-02-01T08:16:49;98497.06;;;-0.09;100.00
53011;BME280;42803;55.762;38.084;2023-02-01T08:19:19;98495.25;;;-0.10;100.00
53011;BME280;42803;55.762;38.084;2023-02-01T08:21:49;98489.97;;;-0.12;100.00
53011;BME280;42803;55.762;38.084;2023-02-01T08:24:18;98482.63;;;0.00;100.00
53011;BME280;42803;55.762;38.084;2023-02-01T08:26:48;98482.00;;;-0.06;100.00
53011;BME280;42803;55.762;38.084;2023-02-01T08:29:18;98490.13;;;-0.10;100.00
53011;BME280;42803;55.762;38.084;2023-02-01T08:31:47;98487.09;;;-0.15;100.00
53011;BME280;42803;55.762;38.084;2023-02-01T08:34:16;98480.63;;;-0.11;100.00
53011;BME280;42803;55.762;38.084;2023-02-01T08:36:45;98489.38;;;-0.09;100.00
53011;BME280;42803;55.762;38.084;2023-02-01T08:39:16;98482.63;;;0.00;100.00
53011;BME280;42803;55.762;38.084;2023-02-01T08:41:45;98472.50;;;-0.07;100.00
53011;BME280;42803;55.762;38.084;2023-02-01T08:44:35;98485.75;;;-0.11;100.00
53011;BME280;42803;55.762;38.084;2023-02-01T08:47:04;98480.47;;;-0.04;100.00
53011;BME280;42803;55.762;38.084;2023-02-01T08:49:33;98480.19;;;0.02;100.00
53011;BME280;42803;55.762;38.084;2023-02-01T08:52:02;98480.84;;;0.16;100.00
53011;BME280;42803;55.762;38.084;2023-02-01T08:54:43;98481.75;;;0.26;100.00
53011;BME280;42803;55.762;38.084;2023-02-01T08:57:12;98481.28;;;0.12;100.00
53011;BME280;42803;55.762;38.084;2023-02-01T08:59:41;98482.63;;;0.09;100.00
53011;BME280;42803;55.762;38.084;2023-02-01T09:02:13;98480.34;;;0.03;100.00
53011;BME280;42803;55.762;38.084;2023-02-01T09:04:42;98484.31;;;0.08;100.00
53011;BME280;42803;55.762;38.084;2023-02-01T09:07:12;98492.00;;;0.08;100.00
53011;BME280;42803;55.762;38.084;2023-02-01T09:09:43;98477.50;;;0.26;100.00
53011;BME280;42803;55.762;38.084;2023-02-01T09:12:12;98480.13;;;0.35;100.00
53011;BME280;42803;55.762;38.084;2023-02-01T09:14:41;98479.66;;;0.39;100.00
53011;BME280;42803;55.762;38.084;2023-02-01T09:17:11;98476.63;;;0.43;100.00
53011;BME280;42803;55.762;38.084;2023-02-01T09:19:40;98470.88;;;0.45;100.00
53011;BME280;42803;55.762;38.084;2023-02-01T09:22:10;98475.41;;;0.48;100.00
53011;BME280;42803;55.762;38.084;2023-02-01T09:24:39;98469.97;;;0.45;100.00
53011;BME280;42803;55.762;38.084;2023-02-01T09:27:10;98467.72;;;0.31;100.00
53011;BME280;42803;55.762;38.084;2023-02-01T09:29:39;98471.47;;;0.26;100.00
53011;BME280;42803;55.762;38.084;2023-02-01T09:32:08;98468.00;;;0.25;100.00
53011;BME280;42803;55.762;38.084;2023-02-01T09:34:37;98464.22;;;0.21;100.00
53011;BME280;42803;55.762;38.084;2023-02-01T09:37:10;98472.69;;;0.12;100.00
53011;BME280;42803;55.762;38.084;2023-02-01T09:39:41;98481.69;;;-0.01;100.00
53011;BME280;42803;55.762;38.084;2023-02-01T09:42:21;98476.28;;;0.05;100.00
53011;BME280;42803;55.762;38.084;2023-02-01T09:45:04;98473.28;;;0.09;100.00
53011;BME280;42803;55.762;38.084;2023-02-01T09:47:39;98465.56;;;0.09;100.00
53011;BME280;42803;55.762;38.084;2023-02-01T09:50:14;98461.81;;;0.14;100.00
53011;BME280;42803;55.762;38.084;2023-02-01T09:52:53;98467.25;;;0.17;100.00
53011;BME280;42803;55.762;38.084;2023-02-01T09:55:30;98455.31;;;0.27;100.00
53011;BME280;42803;55.762;38.084;2023-02-01T09:58:07;98460.94;;;0.40;100.00
53011;BME280;42803;55.762;38.084;2023-02-01T10:00:37;98455.47;;;0.37;100.00
53011;BME280;42803;55.762;38.084;2023-02-01T10:03:11;98456.41;;;0.29;100.00
53011;BME280;42803;55.762;38.084;2023-02-01T10:06:04;98455.19;;;0.34;100.00
53011;BME280;42803;55.762;38.084;2023-02-01T10:08:52;98456.41;;;0.46;100.00
53011;BME280;42803;55.762;38.084;2023-02-01T10:11:32;98456.56;;;0.39;100.00
53011;BME280;42803;55.762;38.084;2023-02-01T10:14:36;98446.72;;;0.52;100.00
53011;BME280;42803;55.762;38.084;2023-02-01T10:17:19;98446.72;;;0.52;100.00
53011;BME280;42803;55.762;38.084;2023-02-01T10:20:02;98448.84;;;0.47;100.00
53011;BME280;42803;55.762;38.084;2023-02-01T10:22:40;98445.81;;;0.52;100.00
53011;BME280;42803;55.762;38.084;2023-02-01T10:25:36;98445.97;;;0.53;100.00
53011;BME280;42803;55.762;38.084;2023-02-01T10:28:11;98443.72;;;0.39;100.00
53011;BME280;42803;55.762;38.084;2023-02-01T10:30:46;98449.75;;;0.31;100.00
53011;BME280;42803;55.762;38.084;2023-02-01T10:33:18;98447.34;;;0.23;100.00
53011;BME280;42803;55.762;38.084;2023-02-01T10:35:53;98442.97;;;0.31;100.00
53011;BME280;42803;55.762;38.084;2023-02-01T10:38:26;98445.66;;;0.33;100.00
53011;BME280;42803;55.762;38.084;2023-02-01T10:41:01;98450.81;;;0.24;100.00
53011;BME280;42803;55.762;38.084;2023-02-01T10:43:32;98445.81;;;0.26;100.00
53011;BME280;42803;55.762;38.084;2023-02-01T10:46:03;98440.25;;;0.47;100.00
53011;BME280;42803;55.762;38.084;2023-02-01T10:48:33;98440.09;;;0.54;100.00
53011;BME280;42803;55.762;38.084;2023-02-01T10:51:06;98436.91;;;0.48;99.65
53011;BME280;42803;55.762;38.084;2023-02-01T10:53:45;98441.75;;;0.36;100.00
53011;BME280;42803;55.762;38.084;2023-02-01T10:56:22;98445.22;;;0.37;100.00
53011;BME280;42803;55.762;38.084;2023-02-01T10:59:00;98440.69;;;0.26;100.00
53011;BME280;42803;55.762;38.084;2023-02-01T11:01:35;98445.22;;;0.28;100.00
53011;BME280;42803;55.762;38.084;2023-02-01T11:04:07;98447.94;;;0.12;100.00
53011;BME280;42803;55.762;38.084;2023-02-01T11:06:40;98451.09;;;0.01;100.00
53011;BME280;42803;55.762;38.084;2023-02-01T11:09:17;98447.75;;;0.02;100.00
53011;BME280;42803;55.762;38.084;2023-02-01T11:11:56;98440.06;;;0.02;100.00
53011;BME280;42803;55.762;38.084;2023-02-01T11:14:32;98432.22;;;0.01;100.00
53011;BME280;42803;55.762;38.084;2023-02-01T11:17:18;98437.94;;;-0.02;100.00
53011;BME280;42803;55.762;38.084;2023-02-01T11:19:57;98448.19;;;-0.02;100.00
53011;BME280;42803;55.762;38.084;2023-02-01T11:22:26;98450.00;;;-0.10;100.00
53011;BME280;42803;55.762;38.084;2023-02-01T11:25:10;98453.28;;;-0.19;100.00
53011;BME280;42803;55.762;38.084;2023-02-01T11:27:39;98450.13;;;-0.26;100.00
53011;BME280;42803;55.762;38.084;2023-02-01T11:30:31;98444.84;;;-0.18;100.00
53011;BME280;42803;55.762;38.084;2023-02-01T11:33:04;98445.31;;;-0.14;100.00
53011;BME280;42803;55.762;38.084;2023-02-01T11:35:35;98447.69;;;-0.33;100.00
53011;BME280;42803;55.762;38.084;2023-02-01T11:38:16;98454.28;;;-0.35;100.00
53011;BME280;42803;55.762;38.084;2023-02-01T11:40:48;98446.31;;;-0.38;100.00
53011;BME280;42803;55.762;38.084;2023-02-01T11:43:23;98452.34;;;-0.37;100.00
53011;BME280;42803;55.762;38.084;2023-02-01T11:45:57;98459.84;;;-0.39;100.00
53011;BME280;42803;55.762;38.084;2023-02-01T11:48:32;98464.88;;;-0.32;100.00
53011;BME280;42803;55.762;38.084;2023-02-01T11:51:19;98465.97;;;-0.12;100.00
53011;BME280;42803;55.762;38.084;2023-02-01T11:54:08;98465.53;;;-0.08;100.00
53011;BME280;42803;55.762;38.084;2023-02-01T11:56:44;98466.25;;;-0.27;100.00
53011;BME280;42803;55.762;38.084;2023-02-01T11:59:29;98470.16;;;-0.30;100.00
53011;BME280;42803;55.762;38.084;2023-02-01T12:02:19;98469.53;;;-0.36;100.00
53011;BME280;42803;55.762;38.084;2023-02-01T12:05:03;98475.53;;;-0.44;100.00
53011;BME280;42803;55.762;38.084;2023-02-01T12:07:51;98483.03;;;-0.55;100.00
53011;BME280;42803;55.762;38.084;2023-02-01T12:10:32;98485.56;;;-0.63;100.00
53011;BME280;42803;55.762;38.084;2023-02-01T12:13:16;98482.66;;;-0.66;100.00
53011;BME280;42803;55.762;38.084;2023-02-01T12:15:59;98482.66;;;-0.66;100.00
53011;BME280;42803;55.762;38.084;2023-02-01T12:18:44;98487.78;;;-0.66;100.00
53011;BME280;42803;55.762;38.084;2023-02-01T12:27:46;98496.66;;;-0.71;100.00
53011;BME280;42803;55.762;38.084;2023-02-01T12:30:48;98501.63;;;-0.73;100.00
53011;BME280;42803;55.762;38.084;2023-02-01T12:33:28;98492.84;;;-0.84;100.00
53011;BME280;42803;55.762;38.084;2023-02-01T12:36:10;98493.09;;;-0.89;100.00
53011;BME280;42803;55.762;38.084;2023-02-01T12:38:55;98491.28;;;-0.90;100.00
53011;BME280;42803;55.762;38.084;2023-02-01T12:41:40;98500.63;;;-0.91;100.00
53011;BME280;42803;55.762;38.084;2023-02-01T12:44:16;98494.59;;;-0.91;100.00
53011;BME280;42803;55.762;38.084;2023-02-01T12:46:48;98493.38;;;-0.95;100.00
53011;BME280;42803;55.762;38.084;2023-02-01T12:49:22;98506.31;;;-0.93;100.00
53011;BME280;42803;55.762;38.084;2023-02-01T12:51:57;98505.00;;;-0.90;100.00
53011;BME280;42803;55.762;38.084;2023-02-01T12:54:34;98507.78;;;-0.80;100.00
53011;BME280;42803;55.762;38.084;2023-02-01T12:57:06;98509.59;;;-0.79;100.00
53011;BME280;42803;55.762;38.084;2023-02-01T12:59:42;98504.13;;;-0.82;100.00
53011;BME280;42803;55.762;38.084;2023-02-01T13:02:18;98506.69;;;-0.82;100.00
53011;BME280;42803;55.762;38.084;2023-02-01T13:04:56;98510.44;;;-0.87;100.00
53011;BME280;42803;55.762;38.084;2023-02-01T13:07:34;98514.47;;;-0.89;100.00
53011;BME280;42803;55.762;38.084;2023-02-01T13:10:13;98513.91;;;-0.86;100.00
53011;BME280;42803;55.762;38.084;2023-02-01T13:12:50;98514.84;;;-0.77;100.00
53011;BME280;42803;55.762;38.084;2023-02-01T13:15:24;98514.38;;;-0.82;100.00
53011;BME280;42803;55.762;38.084;2023-02-01T13:17:58;98520.41;;;-0.81;100.00
53011;BME280;42803;55.762;38.084;2023-02-01T13:20:31;98514.81;;;-0.86;100.00
53011;BME280;42803;55.762;38.084;2023-02-01T13:23:05;98521.75;;;-0.85;100.00